sensor_id;sensor_type;location;lat;lon;timestamp;P1;durP1;ratioP1;P2;durP2;ratioP2
21235;SDS011;10775;42.678;26.324;2022-12-18T00:01:14;4.63;;;2.75;;
21235;SDS011;10775;42.678;26.324;2022-12-18T00:03:44;4.10;;;2.90;;
21235;SDS011;10775;42.678;26.324;2022-12-18T00:06:10;10.18;;;4.47;;
21235;SDS011;10775;42.678;26.324;2022-12-18T00:08:36;6.38;;;3.13;;
21235;SDS011;10775;42.678;26.324;2022-12-18T00:11:03;3.83;;;2.30;;
21235;SDS011;10775;42.678;26.324;2022-12-18T00:13:30;3.15;;;2.35;;
21235;SDS011;10775;42.678;26.324;2022-12-18T00:16:00;3.53;;;2.40;;
21235;SDS011;10775;42.678;26.324;2022-12-18T00:18:31;4.20;;;2.35;;
21235;SDS011;10775;42.678;26.324;2022-12-18T00:21:01;4.20;;;2.40;;
21235;SDS011;10775;42.678;26.324;2022-12-18T00:23:28;3.88;;;2.38;;
21235;SDS011;10775;42.678;26.324;2022-12-18T00:25:58;4.10;;;2.55;;
21235;SDS011;10775;42.678;26.324;2022-12-18T00:28:25;4.20;;;2.38;;
21235;SDS011;10775;42.678;26.324;2022-12-18T00:30:50;4.20;;;2.55;;
21235;SDS011;10775;42.678;26.324;2022-12-18T00:33:17;5.10;;;3.05;;
21235;SDS011;10775;42.678;26.324;2022-12-18T00:35:43;5.78;;;2.70;;
21235;SDS011;10775;42.678;26.324;2022-12-18T00:38:08;4.45;;;2.60;;
21235;SDS011;10775;42.678;26.324;2022-12-18T00:40:34;4.53;;;3.10;;
21235;SDS011;10775;42.678;26.324;2022-12-18T00:42:59;4.88;;;2.40;;
21235;SDS011;10775;42.678;26.324;2022-12-18T00:45:29;3.28;;;2.30;;
21235;SDS011;10775;42.678;26.324;2022-12-18T00:47:56;3.40;;;2.60;;
21235;SDS011;10775;42.678;26.324;2022-12-18T00:50:22;4.53;;;2.83;;
21235;SDS011;10775;42.678;26.324;2022-12-18T00:52:49;4.68;;;2.60;;
21235;SDS011;10775;42.678;26.324;2022-12-18T00:55:15;4.13;;;2.80;;
21235;SDS011;10775;42.678;26.324;2022-12-18T00:57:41;5.22;;;2.88;;
21235;SDS011;10775;42.678;26.324;2022-12-18T01:00:08;3.38;;;2.35;;
21235;SDS011;10775;42.678;26.324;2022-12-18T01:02:36;2.95;;;2.25;;
21235;SDS011;10775;42.678;26.324;2022-12-18T01:05:01;3.42;;;2.40;;
21235;SDS011;10775;42.678;26.324;2022-12-18T01:07:27;3.50;;;2.35;;
21235;SDS011;10775;42.678;26.324;2022-12-18T01:09:54;4.32;;;2.70;;
21235;SDS011;10775;42.678;26.324;2022-12-18T01:12:19;3.95;;;2.67;;
21235;SDS011;10775;42.678;26.324;2022-12-18T01:14:45;4.00;;;2.30;;
21235;SDS011;10775;42.678;26.324;2022-12-18T01:17:11;3.05;;;2.30;;
21235;SDS011;10775;42.678;26.324;2022-12-18T01:19:36;4.20;;;3.05;;
21235;SDS011;10775;42.678;26.324;2022-12-18T01:22:02;5.50;;;2.63;;
21235;SDS011;10775;42.678;26.324;2022-12-18T01:24:29;4.57;;;2.63;;
21235;SDS011;10775;42.678;26.324;2022-12-18T01:26:55;4.10;;;2.90;;
21235;SDS011;10775;42.678;26.324;2022-12-18T01:29:22;3.75;;;2.70;;
21235;SDS011;10775;42.678;26.324;2022-12-18T01:31:50;6.75;;;2.33;;
21235;SDS011;10775;42.678;26.324;2022-12-18T01:34:15;3.65;;;2.50;;
21235;SDS011;10775;42.678;26.324;2022-12-18T01:36:41;3.88;;;2.50;;
21235;SDS011;10775;42.678;26.324;2022-12-18T01:39:10;4.82;;;2.80;;
21235;SDS011;10775;42.678;26.324;2022-12-18T01:41:38;3.90;;;2.40;;
21235;SDS011;10775;42.678;26.324;2022-12-18T01:47:26;4.50;;;2.50;;
21235;SDS011;10775;42.678;26.324;2022-12-18T01:49:56;4.65;;;2.60;;
21235;SDS011;10775;42.678;26.324;2022-12-18T01:52:24;3.80;;;2.58;;
21235;SDS011;10775;42.678;26.324;2022-12-18T01:54:53;4.57;;;2.78;;
21235;SDS011;10775;42.678;26.324;2022-12-18T01:57:20;5.03;;;3.05;;
21235;SDS011;10775;42.678;26.324;2022-12-18T01:59:47;5.50;;;2.78;;
21235;SDS011;10775;42.678;26.324;2022-12-18T02:02:18;3.47;;;2.53;;
21235;SDS011;10775;42.678;26.324;2022-12-18T02:04:45;5.40;;;2.88;;
21235;SDS011;10775;42.678;26.324;2022-12-18T02:10:05;4.53;;;2.67;;
21235;SDS011;10775;42.678;26.324;2022-12-18T02:18:13;3.88;;;2.60;;
21235;SDS011;10775;42.678;26.324;2022-12-18T02:20:52;3.72;;;2.50;;
21235;SDS011;10775;42.678;26.324;2022-12-18T02:29:02;3.15;;;1.98;;
21235;SDS011;10775;42.678;26.324;2022-12-18T02:31:45;4.47;;;2.43;;
21235;SDS011;10775;42.678;26.324;2022-12-18T02:34:16;4.53;;;2.80;;
21235;SDS011;10775;42.678;26.324;2022-12-18T02:36:43;3.47;;;2.50;;
21235;SDS011;10775;42.678;26.324;2022-12-18T02:39:11;3.17;;;2.28;;
21235;SDS011;10775;42.678;26.324;2022-12-18T02:41:38;3.42;;;2.67;;
21235;SDS011;10775;42.678;26.324;2022-12-18T02:44:12;3.75;;;2.40;;
21235;SDS011;10775;42.678;26.324;2022-12-18T02:46:46;4.75;;;2.53;;
21235;SDS011;10775;42.678;26.324;2022-12-18T02:49:21;3.65;;;2.40;;
21235;SDS011;10775;42.678;26.324;2022-12-18T02:52:37;3.40;;;2.63;;
21235;SDS011;10775;42.678;26.324;2022-12-18T02:54:57;3.28;;;2.40;;
21235;SDS011;10775;42.678;26.324;2022-12-18T02:57:46;3.38;;;2.38;;
21235;SDS011;10775;42.678;26.324;2022-12-18T03:00:34;2.75;;;2.25;;
21235;SDS011;10775;42.678;26.324;2022-12-18T03:05:47;4.72;;;2.45;;
21235;SDS011;10775;42.678;26.324;2022-12-18T03:08:19;3.35;;;2.28;;
21235;SDS011;10775;42.678;26.324;2022-12-18T03:11:07;2.78;;;2.10;;
21235;SDS011;10775;42.678;26.324;2022-12-18T03:16:10;2.85;;;2.10;;
21235;SDS011;10775;42.678;26.324;2022-12-18T03:18:46;4.40;;;2.50;;
21235;SDS011;10775;42.678;26.324;2022-12-18T03:21:20;3.95;;;2.63;;
21235;SDS011;10775;42.678;26.324;2022-12-18T03:23:49;2.78;;;2.08;;
21235;SDS011;10775;42.678;26.324;2022-12-18T03:26:19;4.93;;;2.38;;
21235;SDS011;10775;42.678;26.324;2022-12-18T03:28:52;3.58;;;2.20;;
21235;SDS011;10775;42.678;26.324;2022-12-18T03:31:22;4.63;;;2.42;;
21235;SDS011;10775;42.678;26.324;2022-12-18T03:33:53;4.18;;;2.15;;
21235;SDS011;10775;42.678;26.324;2022-12-18T03:36:20;4.30;;;2.67;;
21235;SDS011;10775;42.678;26.324;2022-12-18T03:38:47;2.70;;;2.08;;
21235;SDS011;10775;42.678;26.324;2022-12-18T03:41:23;2.97;;;2.10;;
21235;SDS011;10775;42.678;26.324;2022-12-18T03:49:29;2.78;;;2.33;;
21235;SDS011;10775;42.678;26.324;2022-12-18T03:52:11;3.67;;;2.55;;
21235;SDS011;10775;42.678;26.324;2022-12-18T03:54:43;4.43;;;2.28;;
21235;SDS011;10775;42.678;26.324;2022-12-18T03:57:18;4.15;;;2.47;;
21235;SDS011;10775;42.678;26.324;2022-12-18T03:59:46;3.17;;;1.85;;
21235;SDS011;10775;42.678;26.324;2022-12-18T04:02:16;2.72;;;2.15;;
21235;SDS011;10775;42.678;26.324;2022-12-18T04:04:43;4.00;;;2.72;;
21235;SDS011;10775;42.678;26.324;2022-12-18T04:07:14;3.42;;;2.42;;
21235;SDS011;10775;42.678;26.324;2022-12-18T04:09:42;7.05;;;2.25;;
21235;SDS011;10775;42.678;26.324;2022-12-18T04:12:10;4.18;;;2.30;;
21235;SDS011;10775;42.678;26.324;2022-12-18T04:14:36;3.50;;;2.47;;
21235;SDS011;10775;42.678;26.324;2022-12-18T04:17:02;4.28;;;2.38;;
21235;SDS011;10775;42.678;26.324;2022-12-18T04:19:28;4.10;;;2.55;;
21235;SDS011;10775;42.678;26.324;2022-12-18T04:21:54;3.65;;;2.15;;
21235;SDS011;10775;42.678;26.324;2022-12-18T04:24:19;4.35;;;2.50;;
21235;SDS011;10775;42.678;26.324;2022-12-18T04:26:45;4.38;;;2.53;;
21235;SDS011;10775;42.678;26.324;2022-12-18T04:29:11;4.78;;;2.50;;
21235;SDS011;10775;42.678;26.324;2022-12-18T04:31:37;4.88;;;2.70;;
21235;SDS011;10775;42.678;26.324;2022-12-18T04:34:03;3.95;;;2.13;;
21235;SDS011;10775;42.678;26.324;2022-12-18T04:36:29;3.83;;;2.40;;
21235;SDS011;10775;42.678;26.324;2022-12-18T04:38:56;2.78;;;2.00;;
21235;SDS011;10775;42.678;26.324;2022-12-18T04:41:22;3.55;;;2.22;;
21235;SDS011;10775;42.678;26.324;2022-12-18T04:43:47;2.90;;;2.03;;
21235;SDS011;10775;42.678;26.324;2022-12-18T04:46:13;3.22;;;2.35;;
21235;SDS011;10775;42.678;26.324;2022-12-18T04:48:38;3.83;;;2.05;;
21235;SDS011;10775;42.678;26.324;2022-12-18T04:51:04;4.07;;;2.28;;
21235;SDS011;10775;42.678;26.324;2022-12-18T04:53:31;5.13;;;2.35;;
21235;SDS011;10775;42.678;26.324;2022-12-18T04:56:07;3.95;;;2.28;;
21235;SDS011;10775;42.678;26.324;2022-12-18T04:58:35;3.88;;;1.80;;
21235;SDS011;10775;42.678;26.324;2022-12-18T05:01:02;4.93;;;2.10;;
21235;SDS011;10775;42.678;26.324;2022-12-18T05:03:28;4.47;;;2.47;;
21235;SDS011;10775;42.678;26.324;2022-12-18T05:05:54;3.92;;;2.72;;
21235;SDS011;10775;42.678;26.324;2022-12-18T05:08:20;4.32;;;2.50;;
21235;SDS011;10775;42.678;26.324;2022-12-18T05:10:45;3.83;;;2.20;;
21235;SDS011;10775;42.678;26.324;2022-12-18T05:13:11;3.42;;;2.67;;
21235;SDS011;10775;42.678;26.324;2022-12-18T05:15:37;3.38;;;2.40;;
21235;SDS011;10775;42.678;26.324;2022-12-18T05:18:02;3.95;;;2.30;;
21235;SDS011;10775;42.678;26.324;2022-12-18T05:20:28;2.70;;;1.90;;
21235;SDS011;10775;42.678;26.324;2022-12-18T05:22:55;3.42;;;2.53;;
21235;SDS011;10775;42.678;26.324;2022-12-18T05:25:21;4.95;;;2.67;;
21235;SDS011;10775;42.678;26.324;2022-12-18T05:27:48;4.20;;;2.63;;
21235;SDS011;10775;42.678;26.324;2022-12-18T05:30:14;4.97;;;2.40;;
21235;SDS011;10775;42.678;26.324;2022-12-18T05:32:40;3.55;;;1.98;;
21235;SDS011;10775;42.678;26.324;2022-12-18T05:35:06;1.98;;;1.40;;
21235;SDS011;10775;42.678;26.324;2022-12-18T05:37:33;4.07;;;2.40;;
21235;SDS011;10775;42.678;26.324;2022-12-18T05:40:00;3.95;;;2.42;;
21235;SDS011;10775;42.678;26.324;2022-12-18T05:42:26;3.40;;;1.92;;
21235;SDS011;10775;42.678;26.324;2022-12-18T05:44:51;3.55;;;2.40;;
21235;SDS011;10775;42.678;26.324;2022-12-18T05:47:17;3.40;;;2.83;;
21235;SDS011;10775;42.678;26.324;2022-12-18T05:49:43;3.53;;;2.50;;
21235;SDS011;10775;42.678;26.324;2022-12-18T05:52:08;5.28;;;2.95;;
21235;SDS011;10775;42.678;26.324;2022-12-18T05:54:34;3.72;;;2.38;;
21235;SDS011;10775;42.678;26.324;2022-12-18T05:57:01;4.18;;;2.40;;
21235;SDS011;10775;42.678;26.324;2022-12-18T05:59:27;3.88;;;2.22;;
21235;SDS011;10775;42.678;26.324;2022-12-18T06:01:52;5.50;;;2.80;;
21235;SDS011;10775;42.678;26.324;2022-12-18T06:04:18;4.40;;;3.05;;
21235;SDS011;10775;42.678;26.324;2022-12-18T06:06:43;3.33;;;2.28;;
21235;SDS011;10775;42.678;26.324;2022-12-18T06:09:09;4.00;;;2.15;;
21235;SDS011;10775;42.678;26.324;2022-12-18T06:11:35;3.83;;;2.38;;
21235;SDS011;10775;42.678;26.324;2022-12-18T06:14:04;4.63;;;3.20;;
21235;SDS011;10775;42.678;26.324;2022-12-18T06:16:30;4.93;;;3.13;;
21235;SDS011;10775;42.678;26.324;2022-12-18T06:18:58;5.35;;;2.55;;
21235;SDS011;10775;42.678;26.324;2022-12-18T06:21:24;4.43;;;2.85;;
21235;SDS011;10775;42.678;26.324;2022-12-18T06:23:50;4.38;;;3.00;;
21235;SDS011;10775;42.678;26.324;2022-12-18T06:26:15;6.45;;;2.90;;
21235;SDS011;10775;42.678;26.324;2022-12-18T06:28:41;4.88;;;2.95;;
21235;SDS011;10775;42.678;26.324;2022-12-18T06:31:08;4.10;;;2.33;;
21235;SDS011;10775;42.678;26.324;2022-12-18T06:33:34;3.60;;;2.40;;
21235;SDS011;10775;42.678;26.324;2022-12-18T06:36:02;4.82;;;2.90;;
21235;SDS011;10775;42.678;26.324;2022-12-18T06:38:32;6.40;;;2.78;;
21235;SDS011;10775;42.678;26.324;2022-12-18T06:40:59;4.03;;;2.53;;
21235;SDS011;10775;42.678;26.324;2022-12-18T06:43:26;3.08;;;2.08;;
21235;SDS011;10775;42.678;26.324;2022-12-18T06:46:02;4.22;;;2.33;;
21235;SDS011;10775;42.678;26.324;2022-12-18T06:48:34;3.10;;;1.95;;
21235;SDS011;10775;42.678;26.324;2022-12-18T06:51:00;5.05;;;3.00;;
21235;SDS011;10775;42.678;26.324;2022-12-18T06:53:26;3.92;;;2.47;;
21235;SDS011;10775;42.678;26.324;2022-12-18T06:55:52;3.33;;;2.47;;
21235;SDS011;10775;42.678;26.324;2022-12-18T06:58:24;4.55;;;2.85;;
21235;SDS011;10775;42.678;26.324;2022-12-18T07:00:49;2.97;;;2.05;;
21235;SDS011;10775;42.678;26.324;2022-12-18T07:03:15;4.13;;;3.03;;
21235;SDS011;10775;42.678;26.324;2022-12-18T07:05:41;3.63;;;2.40;;
21235;SDS011;10775;42.678;26.324;2022-12-18T07:08:06;2.92;;;1.67;;
21235;SDS011;10775;42.678;26.324;2022-12-18T07:10:32;3.60;;;2.05;;
21235;SDS011;10775;42.678;26.324;2022-12-18T07:12:58;4.28;;;2.80;;
21235;SDS011;10775;42.678;26.324;2022-12-18T07:15:24;3.60;;;2.65;;
21235;SDS011;10775;42.678;26.324;2022-12-18T07:17:49;5.05;;;2.70;;
21235;SDS011;10775;42.678;26.324;2022-12-18T07:20:15;3.60;;;2.40;;
21235;SDS011;10775;42.678;26.324;2022-12-18T07:22:40;2.55;;;1.90;;
21235;SDS011;10775;42.678;26.324;2022-12-18T07:25:06;2.92;;;1.77;;
21235;SDS011;10775;42.678;26.324;2022-12-18T07:27:33;4.70;;;2.35;;
21235;SDS011;10775;42.678;26.324;2022-12-18T07:29:59;2.90;;;1.83;;
21235;SDS011;10775;42.678;26.324;2022-12-18T07:32:24;3.30;;;2.05;;
21235;SDS011;10775;42.678;26.324;2022-12-18T07:34:50;3.08;;;1.92;;
21235;SDS011;10775;42.678;26.324;2022-12-18T07:37:16;3.15;;;2.03;;
21235;SDS011;10775;42.678;26.324;2022-12-18T07:39:43;3.67;;;2.05;;
21235;SDS011;10775;42.678;26.324;2022-12-18T07:42:08;3.58;;;2.50;;
21235;SDS011;10775;42.678;26.324;2022-12-18T07:44:52;2.67;;;1.70;;
21235;SDS011;10775;42.678;26.324;2022-12-18T07:47:18;3.75;;;2.15;;
21235;SDS011;10775;42.678;26.324;2022-12-18T07:49:43;3.53;;;2.15;;
21235;SDS011;10775;42.678;26.324;2022-12-18T07:52:09;2.90;;;1.65;;
21235;SDS011;10775;42.678;26.324;2022-12-18T07:54:39;3.88;;;2.50;;
21235;SDS011;10775;42.678;26.324;2022-12-18T07:57:05;3.58;;;2.35;;
21235;SDS011;10775;42.678;26.324;2022-12-18T07:59:35;4.93;;;3.03;;
21235;SDS011;10775;42.678;26.324;2022-12-18T08:02:00;6.70;;;3.33;;
21235;SDS011;10775;42.678;26.324;2022-12-18T08:04:26;3.63;;;2.60;;
21235;SDS011;10775;42.678;26.324;2022-12-18T08:06:52;3.22;;;2.05;;
21235;SDS011;10775;42.678;26.324;2022-12-18T08:09:17;3.33;;;2.00;;
21235;SDS011;10775;42.678;26.324;2022-12-18T08:11:44;4.78;;;2.80;;
21235;SDS011;10775;42.678;26.324;2022-12-18T08:14:10;6.03;;;2.17;;
21235;SDS011;10775;42.678;26.324;2022-12-18T08:16:36;3.20;;;2.15;;
21235;SDS011;10775;42.678;26.324;2022-12-18T08:19:03;5.53;;;3.50;;
21235;SDS011;10775;42.678;26.324;2022-12-18T08:21:29;4.15;;;2.67;;
21235;SDS011;10775;42.678;26.324;2022-12-18T08:23:58;4.82;;;2.30;;
21235;SDS011;10775;42.678;26.324;2022-12-18T08:26:26;6.20;;;3.38;;
21235;SDS011;10775;42.678;26.324;2022-12-18T08:28:54;5.95;;;3.67;;
21235;SDS011;10775;42.678;26.324;2022-12-18T08:31:21;3.45;;;2.00;;
21235;SDS011;10775;42.678;26.324;2022-12-18T08:33:50;5.00;;;2.08;;
21235;SDS011;10775;42.678;26.324;2022-12-18T08:36:18;3.63;;;2.08;;
21235;SDS011;10775;42.678;26.324;2022-12-18T08:38:45;4.43;;;2.80;;
21235;SDS011;10775;42.678;26.324;2022-12-18T08:41:13;4.07;;;2.42;;
21235;SDS011;10775;42.678;26.324;2022-12-18T08:43:40;7.55;;;3.75;;
21235;SDS011;10775;42.678;26.324;2022-12-18T08:46:25;4.53;;;2.13;;
21235;SDS011;10775;42.678;26.324;2022-12-18T08:48:53;9.77;;;4.65;;
21235;SDS011;10775;42.678;26.324;2022-12-18T08:51:20;4.47;;;2.58;;
21235;SDS011;10775;42.678;26.324;2022-12-18T08:53:51;5.28;;;2.80;;
21235;SDS011;10775;42.678;26.324;2022-12-18T08:56:18;3.40;;;2.30;;
21235;SDS011;10775;42.678;26.324;2022-12-18T08:58:44;3.33;;;2.15;;
21235;SDS011;10775;42.678;26.324;2022-12-18T09:01:12;4.40;;;3.00;;
21235;SDS011;10775;42.678;26.324;2022-12-18T09:03:38;7.03;;;4.45;;
21235;SDS011;10775;42.678;26.324;2022-12-18T09:06:04;4.75;;;2.85;;
21235;SDS011;10775;42.678;26.324;2022-12-18T09:08:30;7.05;;;3.88;;
21235;SDS011;10775;42.678;26.324;2022-12-18T09:10:56;4.85;;;2.63;;
21235;SDS011;10775;42.678;26.324;2022-12-18T09:13:23;4.03;;;1.98;;
21235;SDS011;10775;42.678;26.324;2022-12-18T09:15:50;4.55;;;2.55;;
21235;SDS011;10775;42.678;26.324;2022-12-18T09:18:18;3.85;;;2.33;;
21235;SDS011;10775;42.678;26.324;2022-12-18T09:20:45;4.30;;;2.00;;
21235;SDS011;10775;42.678;26.324;2022-12-18T09:23:11;7.00;;;4.30;;
21235;SDS011;10775;42.678;26.324;2022-12-18T09:25:38;4.93;;;2.42;;
21235;SDS011;10775;42.678;26.324;2022-12-18T09:28:09;7.70;;;4.88;;
21235;SDS011;10775;42.678;26.324;2022-12-18T09:30:39;4.40;;;2.97;;
21235;SDS011;10775;42.678;26.324;2022-12-18T09:33:05;4.60;;;2.47;;
21235;SDS011;10775;42.678;26.324;2022-12-18T09:35:31;4.60;;;3.15;;
21235;SDS011;10775;42.678;26.324;2022-12-18T09:37:56;4.10;;;2.70;;
21235;SDS011;10775;42.678;26.324;2022-12-18T09:40:25;6.10;;;3.47;;
21235;SDS011;10775;42.678;26.324;2022-12-18T09:42:56;3.17;;;2.03;;
21235;SDS011;10775;42.678;26.324;2022-12-18T09:45:24;4.95;;;3.17;;
21235;SDS011;10775;42.678;26.324;2022-12-18T09:47:52;5.07;;;2.80;;
21235;SDS011;10775;42.678;26.324;2022-12-18T09:50:26;4.25;;;2.05;;
21235;SDS011;10775;42.678;26.324;2022-12-18T09:53:02;3.67;;;2.50;;
21235;SDS011;10775;42.678;26.324;2022-12-18T09:55:36;4.60;;;2.60;;
21235;SDS011;10775;42.678;26.324;2022-12-18T09:58:51;4.68;;;3.03;;
21235;SDS011;10775;42.678;26.324;2022-12-18T10:00:56;6.20;;;3.20;;
21235;SDS011;10775;42.678;26.324;2022-12-18T10:03:22;4.97;;;3.20;;
21235;SDS011;10775;42.678;26.324;2022-12-18T10:08:39;4.85;;;2.63;;
21235;SDS011;10775;42.678;26.324;2022-12-18T10:16:53;4.80;;;2.80;;
21235;SDS011;10775;42.678;26.324;2022-12-18T10:22:33;9.82;;;4.78;;
21235;SDS011;10775;42.678;26.324;2022-12-18T10:27:42;6.15;;;3.40;;
21235;SDS011;10775;42.678;26.324;2022-12-18T10:30:13;4.28;;;2.58;;
21235;SDS011;10775;42.678;26.324;2022-12-18T10:32:41;9.30;;;4.97;;
21235;SDS011;10775;42.678;26.324;2022-12-18T10:35:07;5.22;;;2.85;;
21235;SDS011;10775;42.678;26.324;2022-12-18T10:37:59;6.78;;;3.30;;
21235;SDS011;10775;42.678;26.324;2022-12-18T10:40:25;4.93;;;3.33;;
21235;SDS011;10775;42.678;26.324;2022-12-18T10:45:40;3.78;;;2.42;;
21235;SDS011;10775;42.678;26.324;2022-12-18T10:48:19;4.85;;;3.10;;
21235;SDS011;10775;42.678;26.324;2022-12-18T10:50:47;5.18;;;2.92;;
21235;SDS011;10775;42.678;26.324;2022-12-18T10:53:19;5.45;;;2.95;;
21235;SDS011;10775;42.678;26.324;2022-12-18T10:55:49;4.38;;;2.45;;
21235;SDS011;10775;42.678;26.324;2022-12-18T10:58:28;3.95;;;2.53;;
21235;SDS011;10775;42.678;26.324;2022-12-18T11:01:12;6.80;;;4.03;;
21235;SDS011;10775;42.678;26.324;2022-12-18T11:03:42;4.63;;;2.40;;
21235;SDS011;10775;42.678;26.324;2022-12-18T11:06:21;5.88;;;3.08;;
21235;SDS011;10775;42.678;26.324;2022-12-18T11:11:51;5.05;;;3.05;;
21235;SDS011;10775;42.678;26.324;2022-12-18T11:14:23;4.75;;;2.70;;
21235;SDS011;10775;42.678;26.324;2022-12-18T11:16:50;5.78;;;3.28;;
21235;SDS011;10775;42.678;26.324;2022-12-18T11:22:00;8.30;;;3.92;;
21235;SDS011;10775;42.678;26.324;2022-12-18T11:27:03;6.20;;;3.15;;
21235;SDS011;10775;42.678;26.324;2022-12-18T11:29:37;4.88;;;2.70;;
21235;SDS011;10775;42.678;26.324;2022-12-18T11:34:39;9.77;;;5.00;;
21235;SDS011;10775;42.678;26.324;2022-12-18T11:37:10;4.55;;;2.58;;
21235;SDS011;10775;42.678;26.324;2022-12-18T11:39:39;5.03;;;3.03;;
21235;SDS011;10775;42.678;26.324;2022-12-18T11:42:10;11.55;;;5.88;;
21235;SDS011;10775;42.678;26.324;2022-12-18T11:44:49;5.50;;;3.33;;
21235;SDS011;10775;42.678;26.324;2022-12-18T11:47:21;9.63;;;5.60;;
21235;SDS011;10775;42.678;26.324;2022-12-18T11:49:55;5.38;;;3.33;;
21235;SDS011;10775;42.678;26.324;2022-12-18T11:52:28;10.15;;;5.15;;
21235;SDS011;10775;42.678;26.324;2022-12-18T11:55:04;4.78;;;3.17;;
21235;SDS011;10775;42.678;26.324;2022-12-18T12:14:49;11.40;;;6.75;;
21235;SDS011;10775;42.678;26.324;2022-12-18T12:23:14;7.05;;;3.50;;
21235;SDS011;10775;42.678;26.324;2022-12-18T12:25:49;5.32;;;2.80;;
21235;SDS011;10775;42.678;26.324;2022-12-18T12:28:41;6.07;;;2.80;;
21235;SDS011;10775;42.678;26.324;2022-12-18T12:34:08;11.57;;;6.57;;
21235;SDS011;10775;42.678;26.324;2022-12-18T12:39:37;4.95;;;3.20;;
21235;SDS011;10775;42.678;26.324;2022-12-18T12:42:05;12.63;;;8.13;;
21235;SDS011;10775;42.678;26.324;2022-12-18T12:44:58;5.40;;;3.35;;
21235;SDS011;10775;42.678;26.324;2022-12-18T12:47:47;6.28;;;3.58;;
21235;SDS011;10775;42.678;26.324;2022-12-18T12:50:16;8.05;;;4.88;;
21235;SDS011;10775;42.678;26.324;2022-12-18T12:52:49;7.15;;;4.55;;
21235;SDS011;10775;42.678;26.324;2022-12-18T12:55:20;7.35;;;3.92;;
21235;SDS011;10775;42.678;26.324;2022-12-18T12:57:54;16.38;;;9.18;;
21235;SDS011;10775;42.678;26.324;2022-12-18T13:01:40;8.48;;;4.30;;
21235;SDS011;10775;42.678;26.324;2022-12-18T13:09:06;6.13;;;3.70;;
21235;SDS011;10775;42.678;26.324;2022-12-18T13:11:40;8.50;;;4.50;;
21235;SDS011;10775;42.678;26.324;2022-12-18T13:14:30;7.60;;;4.35;;
21235;SDS011;10775;42.678;26.324;2022-12-18T13:19:42;6.45;;;3.60;;
21235;SDS011;10775;42.678;26.324;2022-12-18T13:22:22;7.32;;;3.22;;
21235;SDS011;10775;42.678;26.324;2022-12-18T13:25:34;7.88;;;4.53;;
21235;SDS011;10775;42.678;26.324;2022-12-18T13:43:45;6.57;;;4.15;;
21235;SDS011;10775;42.678;26.324;2022-12-18T13:46:27;5.85;;;3.33;;
21235;SDS011;10775;42.678;26.324;2022-12-18T13:51:59;6.78;;;3.80;;
21235;SDS011;10775;42.678;26.324;2022-12-18T13:57:02;7.38;;;4.05;;
21235;SDS011;10775;42.678;26.324;2022-12-18T13:59:37;7.32;;;3.97;;
21235;SDS011;10775;42.678;26.324;2022-12-18T14:02:16;10.00;;;5.97;;
21235;SDS011;10775;42.678;26.324;2022-12-18T14:04:48;8.13;;;4.35;;
21235;SDS011;10775;42.678;26.324;2022-12-18T14:07:21;6.60;;;4.38;;
21235;SDS011;10775;42.678;26.324;2022-12-18T14:09:49;9.50;;;4.78;;
21235;SDS011;10775;42.678;26.324;2022-12-18T14:12:24;7.55;;;4.20;;
21235;SDS011;10775;42.678;26.324;2022-12-18T14:15:16;8.63;;;4.53;;
21235;SDS011;10775;42.678;26.324;2022-12-18T14:18:17;7.95;;;4.90;;
21235;SDS011;10775;42.678;26.324;2022-12-18T14:20:50;9.60;;;5.47;;
21235;SDS011;10775;42.678;26.324;2022-12-18T14:23:51;10.63;;;5.90;;
21235;SDS011;10775;42.678;26.324;2022-12-18T14:26:23;10.13;;;5.80;;
21235;SDS011;10775;42.678;26.324;2022-12-18T14:28:58;23.17;;;9.48;;
21235;SDS011;10775;42.678;26.324;2022-12-18T14:31:29;12.50;;;6.40;;
21235;SDS011;10775;42.678;26.324;2022-12-18T14:33:56;9.65;;;6.18;;
21235;SDS011;10775;42.678;26.324;2022-12-18T14:36:26;10.60;;;5.70;;
21235;SDS011;10775;42.678;26.324;2022-12-18T14:38:56;7.95;;;4.50;;
21235;SDS011;10775;42.678;26.324;2022-12-18T14:41:24;7.65;;;4.25;;
21235;SDS011;10775;42.678;26.324;2022-12-18T14:43:51;9.50;;;4.72;;
21235;SDS011;10775;42.678;26.324;2022-12-18T14:49:02;7.32;;;4.55;;
21235;SDS011;10775;42.678;26.324;2022-12-18T14:51:48;8.70;;;4.68;;
21235;SDS011;10775;42.678;26.324;2022-12-18T14:54:17;9.25;;;5.65;;
21235;SDS011;10775;42.678;26.324;2022-12-18T14:56:44;10.52;;;5.65;;
21235;SDS011;10775;42.678;26.324;2022-12-18T14:59:31;10.93;;;5.30;;
21235;SDS011;10775;42.678;26.324;2022-12-18T15:05:34;9.18;;;5.15;;
21235;SDS011;10775;42.678;26.324;2022-12-18T15:07:53;8.30;;;5.13;;
21235;SDS011;10775;42.678;26.324;2022-12-18T15:10:25;10.75;;;5.75;;
21235;SDS011;10775;42.678;26.324;2022-12-18T15:18:03;13.95;;;6.72;;
21235;SDS011;10775;42.678;26.324;2022-12-18T15:20:54;11.07;;;5.28;;
21235;SDS011;10775;42.678;26.324;2022-12-18T15:25:55;9.23;;;5.13;;
21235;SDS011;10775;42.678;26.324;2022-12-18T15:28:23;10.15;;;5.55;;
21235;SDS011;10775;42.678;26.324;2022-12-18T15:30:59;14.45;;;6.78;;
21235;SDS011;10775;42.678;26.324;2022-12-18T15:33:31;14.95;;;6.57;;
21235;SDS011;10775;42.678;26.324;2022-12-18T15:35:59;12.30;;;6.65;;
21235;SDS011;10775;42.678;26.324;2022-12-18T15:38:26;13.23;;;7.38;;
21235;SDS011;10775;42.678;26.324;2022-12-18T15:40:52;19.90;;;9.75;;
21235;SDS011;10775;42.678;26.324;2022-12-18T15:43:20;15.77;;;7.72;;
21235;SDS011;10775;42.678;26.324;2022-12-18T15:46:03;18.13;;;8.40;;
21235;SDS011;10775;42.678;26.324;2022-12-18T15:48:42;18.40;;;9.55;;
21235;SDS011;10775;42.678;26.324;2022-12-18T15:51:16;19.50;;;10.00;;
21235;SDS011;10775;42.678;26.324;2022-12-18T15:53:59;16.02;;;7.82;;
21235;SDS011;10775;42.678;26.324;2022-12-18T15:56:28;17.13;;;9.88;;
21235;SDS011;10775;42.678;26.324;2022-12-18T15:59:14;17.00;;;8.85;;
21235;SDS011;10775;42.678;26.324;2022-12-18T16:02:01;17.70;;;9.00;;
21235;SDS011;10775;42.678;26.324;2022-12-18T16:04:27;17.90;;;8.35;;
21235;SDS011;10775;42.678;26.324;2022-12-18T16:06:52;15.43;;;8.30;;
21235;SDS011;10775;42.678;26.324;2022-12-18T16:09:18;13.13;;;7.28;;
21235;SDS011;10775;42.678;26.324;2022-12-18T16:11:44;13.75;;;7.80;;
21235;SDS011;10775;42.678;26.324;2022-12-18T16:17:01;16.05;;;8.32;;
21235;SDS011;10775;42.678;26.324;2022-12-18T16:19:28;18.77;;;9.60;;
21235;SDS011;10775;42.678;26.324;2022-12-18T16:21:56;16.58;;;8.07;;
21235;SDS011;10775;42.678;26.324;2022-12-18T16:24:25;13.55;;;7.32;;
21235;SDS011;10775;42.678;26.324;2022-12-18T16:26:55;11.43;;;5.85;;
21235;SDS011;10775;42.678;26.324;2022-12-18T16:29:22;12.75;;;7.22;;
21235;SDS011;10775;42.678;26.324;2022-12-18T16:31:51;12.13;;;6.75;;
21235;SDS011;10775;42.678;26.324;2022-12-18T16:34:21;17.58;;;9.18;;
21235;SDS011;10775;42.678;26.324;2022-12-18T16:36:58;29.77;;;14.48;;
21235;SDS011;10775;42.678;26.324;2022-12-18T16:39:28;13.13;;;7.13;;
21235;SDS011;10775;42.678;26.324;2022-12-18T16:41:56;13.88;;;7.28;;
21235;SDS011;10775;42.678;26.324;2022-12-18T16:44:21;12.90;;;8.15;;
21235;SDS011;10775;42.678;26.324;2022-12-18T16:46:47;14.50;;;7.65;;
21235;SDS011;10775;42.678;26.324;2022-12-18T16:49:14;17.60;;;9.63;;
21235;SDS011;10775;42.678;26.324;2022-12-18T16:51:42;13.80;;;6.63;;
21235;SDS011;10775;42.678;26.324;2022-12-18T16:54:08;11.77;;;6.35;;
21235;SDS011;10775;42.678;26.324;2022-12-18T16:56:34;13.30;;;7.57;;
21235;SDS011;10775;42.678;26.324;2022-12-18T16:59:00;12.38;;;7.47;;
21235;SDS011;10775;42.678;26.324;2022-12-18T17:01:29;13.70;;;7.20;;